^^
Meteo Knjazevac Station Historical Data
Daily Summary for August 07, 2022 Units:  Metric    English   Both
Daily Weekly Monthly Yearly Custom
  High: Low: Average:
Temperature: 32.8 °C 17.3 °C 24.2 °C
Dew Point: 21.8 °C 14.4 °C 18.3 °C
Humidity: 92.6% 49% 71%
Wind Speed: 27.4km/h 0km/h 6.3km/h
Wind Gust: 27.4km/h - -
Wind- - South
Pressure: 1017.8 hPa 1013.8 hPa -
Precipitation: 0 mm    
Historical Graphs
 
 
Tabular Data for August 07, 2022
Time Temperature Dew Point Pressure Wind Wind Speed Wind Gust Humidity Rainfall Rate (Hourly) solar Conditions
00:04 22.6 °C 15.4 °C 1014.1 hPa West 7.1 km/h 6.8 km/h 64% 0 mm 0 W/m2
00:09 22.7 °C 15.6 °C 1014.1 hPa West 4.8 km/h 9.7 km/h 64% 0 mm 0 W/m2
00:14 22.7 °C 15.4 °C 1014.1 hPa NW 3.7 km/h 4.8 km/h 63.6% 0 mm 0 W/m2
00:19 22.7 °C 15.4 °C 1014.1 hPa SSW 1.9 km/h 3.2 km/h 63.5% 0 mm 0 W/m2
00:24 22.7 °C 15.5 °C 1014.1 hPa SW 3.7 km/h 3.5 km/h 63.8% 0 mm 0 W/m2
00:29 22.7 °C 15.7 °C 1013.8 hPa West 1.9 km/h 3.2 km/h 64.8% 0 mm 0 W/m2
00:34 22.7 °C 15.7 °C 1014.1 hPa NNW 5.3 km/h 5.8 km/h 64.9% 0 mm 0 W/m2
00:39 22.8 °C 15.7 °C 1014.1 hPa NNE 3.2 km/h 8 km/h 64.3% 0 mm 0 W/m2
00:44 22.7 °C 15.8 °C 1014.1 hPa NNE 1.9 km/h 3.2 km/h 65% 0 mm 0 W/m2
00:49 22.7 °C 15.7 °C 1014.1 hPa NW 3.5 km/h 3.5 km/h 65% 0 mm 0 W/m2
00:54 22.4 °C 15.6 °C 1014.1 hPa West 4.3 km/h 4.8 km/h 65% 0 mm 0 W/m2
00:59 22.4 °C 15.5 °C 1014.1 hPa ENE 2.7 km/h 4.8 km/h 65% 0 mm 0 W/m2
01:04 22.4 °C 15.5 °C 1014.1 hPa NE 6.6 km/h 4.8 km/h 65% 0 mm 0 W/m2
01:09 22.4 °C 15.6 °C 1014.1 hPa NE 6.4 km/h 8 km/h 65.1% 0 mm 0 W/m2
01:14 22.5 °C 16.1 °C 1014.1 hPa NE 4.3 km/h 6.4 km/h 67% 0 mm 0 W/m2
01:19 22.5 °C 16.1 °C 1014.1 hPa NNE 3.1 km/h 4.8 km/h 67% 0 mm 0 W/m2
01:24 22.4 °C 16 °C 1014.1 hPa WNW 1.4 km/h 3.2 km/h 67% 0 mm 0 W/m2
01:29 22.4 °C 15.9 °C 1014.1 hPa NW 3.2 km/h 3.2 km/h 67% 0 mm 0 W/m2
01:34 22.3 °C 16.1 °C 1014.1 hPa North 1.9 km/h 4.8 km/h 67.7% 0 mm 0 W/m2
01:39 22.2 °C 16.1 °C 1014.1 hPa North 3.1 km/h 1.8 km/h 68% 0 mm 0 W/m2
01:44 22.1 °C 15.9 °C 1014.1 hPa North 1.9 km/h 3.2 km/h 68% 0 mm 0 W/m2
01:49 22 °C 15.8 °C 1014.1 hPa SE 2.1 km/h 3.2 km/h 68% 0 mm 0 W/m2
01:54 21.8 °C 15.8 °C 1014.1 hPa SW 3.9 km/h 3.2 km/h 68.5% 0 mm 0 W/m2
01:59 21.7 °C 15.8 °C 1014.1 hPa West 6 km/h 5 km/h 69% 0 mm 0 W/m2
02:04 21.6 °C 15.7 °C 1014.1 hPa West 6.3 km/h 8 km/h 69.4% 0 mm 0 W/m2
02:09 21.3 °C 15.7 °C 1014.1 hPa West 9 km/h 8 km/h 70% 0 mm 0 W/m2
02:14 21.2 °C 15.8 °C 1014.1 hPa West 5.8 km/h 4.3 km/h 71.7% 0 mm 0 W/m2
02:19 21.1 °C 15.4 °C 1014.1 hPa NW 3.4 km/h 8 km/h 70.4% 0 mm 0 W/m2
02:24 21 °C 15.7 °C 1014.1 hPa North 0.8 km/h 3.2 km/h 71.6% 0 mm 0 W/m2
02:29 20.9 °C 15.7 °C 1014.4 hPa North 2.3 km/h 3.2 km/h 72.1% 0 mm 0 W/m2
02:34 20.8 °C 15.8 °C 1014.1 hPa NNW 1.8 km/h 1.4 km/h 73% 0 mm 0 W/m2
02:39 20.7 °C 15.8 °C 1014.4 hPa Calm   3.2 km/h 73.9% 0 mm 0 W/m2
02:44 20.6 °C 15.8 °C 1014.4 hPa Calm     74% 0 mm 0 W/m2
02:49 20.4 °C 15.7 °C 1014.4 hPa SW 2.4 km/h 1.8 km/h 74.4% 0 mm 0 W/m2
02:54 20.3 °C 15.7 °C 1014.4 hPa WSW 2.3 km/h 3.2 km/h 75% 0 mm 0 W/m2
02:59 20.2 °C 15.6 °C 1014.4 hPa NW 3.2 km/h 3.2 km/h 74.9% 0 mm 0 W/m2
03:04 20.1 °C 15.5 °C 1014.4 hPa North 3.7 km/h 3.2 km/h 74.9% 0 mm 0 W/m2
03:09 19.9 °C 15.7 °C 1014.8 hPa NNW 1.9 km/h 3.2 km/h 76.2% 0 mm 0 W/m2
03:14 19.8 °C 15.7 °C 1014.8 hPa West 1.9 km/h 1.8 km/h 77% 0 mm 0 W/m2
03:19 19.7 °C 15.6 °C 1014.8 hPa WNW 2.9 km/h 2.1 km/h 77% 0 mm 0 W/m2
03:24 19.7 °C 15.5 °C 1014.8 hPa North 1.9 km/h 3.2 km/h 77% 0 mm 0 W/m2
03:29 19.6 °C 15.4 °C 1014.8 hPa North 1.6 km/h 3.2 km/h 77% 0 mm 0 W/m2
03:34 19.5 °C 15.4 °C 1014.8 hPa North 3.5 km/h 4.3 km/h 77.5% 0 mm 0 W/m2
03:39 19.4 °C 15.5 °C 1014.8 hPa NNE 5 km/h 6.4 km/h 78% 0 mm 0 W/m2
03:44 19.4 °C 15.5 °C 1014.8 hPa NNE 3.5 km/h 4.8 km/h 78.3% 0 mm 0 W/m2
03:49 19.4 °C 15.6 °C 1014.8 hPa NNE 2.9 km/h 4.8 km/h 78.3% 0 mm 0 W/m2
03:54 19.3 °C 15.4 °C 1014.8 hPa NNW 3.7 km/h 3.2 km/h 78% 0 mm 0 W/m2
03:59 19.1 °C 15.2 °C 1014.8 hPa WSW 4.2 km/h 4.8 km/h 78% 0 mm 0 W/m2
04:04 18.9 °C 15.2 °C 1014.8 hPa West 1 km/h 4.8 km/h 79% 0 mm 0 W/m2
04:09 18.7 °C 15 °C 1015.1 hPa North 2.1 km/h 2.1 km/h 79% 0 mm 0 W/m2
04:14 18.7 °C 15 °C 1015.1 hPa North 1.9 km/h 3.2 km/h 79% 0 mm 0 W/m2
04:19 18.6 °C 14.9 °C 1015.1 hPa NNW 2.3 km/h 3.2 km/h 79% 0 mm 0 W/m2
04:24 18.6 °C 14.9 °C 1015.1 hPa NNW 1.3 km/h 3.2 km/h 79% 0 mm 0 W/m2
04:29 18.6 °C 14.9 °C 1015.1 hPa North 2.1 km/h 3.2 km/h 79.4% 0 mm 0 W/m2
04:34 18.4 °C 14.9 °C 1015.1 hPa North 1.4 km/h 0.6 km/h 80% 0 mm 0 W/m2
04:39 18.3 °C 14.8 °C 1015.1 hPa WNW 0.5 km/h 1.8 km/h 80% 0 mm 0 W/m2
04:44 18.2 °C 14.7 °C 1015.1 hPa West 1.9 km/h 1.8 km/h 80% 0 mm 0 W/m2
04:49 18.1 °C 14.7 °C 1015.1 hPa NW 0.3 km/h 3.2 km/h 80.2% 0 mm 0 W/m2
04:54 18 °C 14.7 °C 1015.1 hPa NW 1.6 km/h 1.6 km/h 81% 0 mm 0 W/m2
04:59 17.9 °C 14.6 °C 1015.1 hPa WSW 3.4 km/h 3.2 km/h 81% 0 mm 0 W/m2
05:04 17.8 °C 14.5 °C 1015.1 hPa WSW 0.3 km/h 1.1 km/h 81% 0 mm 0 W/m2
05:09 17.7 °C 14.7 °C 1015.1 hPa North 1.1 km/h 1.1 km/h 82.5% 0 mm 0 W/m2
05:14 17.7 °C 14.7 °C 1015.1 hPa NW 3.1 km/h 3.2 km/h 83% 0 mm 0 W/m2
05:19 17.6 °C 14.7 °C 1015.5 hPa West 3.2 km/h 3.2 km/h 83% 0 mm 1 W/m2
05:24 17.5 °C 14.6 °C 1015.1 hPa West 1.1 km/h 3.2 km/h 83% 0 mm 3 W/m2
05:29 17.5 °C 14.6 °C 1015.5 hPa WSW 2.1 km/h 3.2 km/h 83% 0 mm 4 W/m2
05:34 17.4 °C 14.6 °C 1015.5 hPa NNW 2.6 km/h 3.2 km/h 83% 0 mm 6 W/m2
05:39 17.4 °C 14.5 °C 1015.5 hPa North 0.3 km/h 1.1 km/h 83% 0 mm 10 W/m2
05:44 17.3 °C 14.4 °C 1015.5 hPa Calm     83% 0 mm 13 W/m2
05:49 17.3 °C 14.4 °C 1015.5 hPa North 1.3 km/h 1.8 km/h 83.2% 0 mm 18 W/m2
05:54 17.3 °C 14.6 °C 1015.5 hPa North 2.4 km/h 3.2 km/h 84% 0 mm 20 W/m2
05:59 17.3 °C 14.6 °C 1015.5 hPa North 2.1 km/h 3.2 km/h 84% 0 mm 26 W/m2
06:04 17.3 °C 14.6 °C 1015.8 hPa NNW 1.4 km/h 3.2 km/h 84% 0 mm 34 W/m2
06:09 17.4 °C 14.7 °C 1015.8 hPa WNW 2.3 km/h 3.2 km/h 84% 0 mm 43 W/m2
06:14 17.3 °C 14.6 °C 1015.8 hPa WNW 3.5 km/h 3.2 km/h 84% 0 mm 54 W/m2
06:19 17.3 °C 14.6 °C 1016.1 hPa WNW 3.5 km/h 2.1 km/h 84% 0 mm 62 W/m2
06:24 17.3 °C 14.6 °C 1016.1 hPa WNW 3.1 km/h 3.2 km/h 84% 0 mm 73 W/m2
06:29 17.3 °C 14.6 °C 1016.1 hPa WNW 3.7 km/h 3.2 km/h 84% 0 mm 83 W/m2
06:34 17.3 °C 14.6 °C 1016.1 hPa West 2.9 km/h 3.2 km/h 84% 0 mm 91 W/m2
06:39 17.3 °C 14.6 °C 1016.1 hPa West 3.2 km/h 3.2 km/h 84% 0 mm 102 W/m2
06:44 17.4 °C 14.7 °C 1016.1 hPa NNW 1.9 km/h 3.2 km/h 84% 0 mm 102 W/m2
06:49 17.7 °C 14.9 °C 1016.1 hPa NNE 3.7 km/h 3.2 km/h 84% 0 mm 73 W/m2
06:54 17.8 °C 15 °C 1016.1 hPa SE 3.7 km/h 3.2 km/h 83.7% 0 mm 58 W/m2
06:59 17.8 °C 15.1 °C 1016.1 hPa SW 3.7 km/h 4.8 km/h 84% 0 mm 63 W/m2
07:04 17.8 °C 15.1 °C 1016.1 hPa WSW 3.7 km/h 2.6 km/h 84.3% 0 mm 70 W/m2
07:09 17.8 °C 15.1 °C 1016.1 hPa West 3.7 km/h 3.2 km/h 84.2% 0 mm 95 W/m2
07:14 17.8 °C 15.1 °C 1016.1 hPa West 2.3 km/h 3.2 km/h 83.8% 0 mm 142 W/m2
07:19 18 °C 15.2 °C 1016.5 hPa NNW 4.7 km/h 4.3 km/h 83.7% 0 mm 163 W/m2
07:24 18.3 °C 15.5 °C 1016.5 hPa North 1.9 km/h 6.4 km/h 83.8% 0 mm 272 W/m2
07:29 18.7 °C 15.8 °C 1016.5 hPa ENE 1.1 km/h 3.2 km/h 83.2% 0 mm 282 W/m2
07:34 18.9 °C 15.6 °C 1016.5 hPa East 1.3 km/h 1.6 km/h 81.5% 0 mm 293 W/m2
07:39 19.2 °C 15.8 °C 1016.5 hPa WNW 1.6 km/h 3.2 km/h 81% 0 mm 317 W/m2
07:44 19.4 °C 16.1 °C 1016.5 hPa NW 2.6 km/h 3.2 km/h 81% 0 mm 317 W/m2
07:49 19.7 °C 16.2 °C 1016.8 hPa NNW 2.1 km/h 3.2 km/h 80.4% 0 mm 273 W/m2
07:54 20 °C 16.3 °C 1016.8 hPa NW 1.8 km/h 3.2 km/h 79.5% 0 mm 197 W/m2
07:59 20.2 °C 16.4 °C 1016.8 hPa NW 1.1 km/h 3.2 km/h 79% 0 mm 213 W/m2
08:04 20.4 °C 16.6 °C 1016.8 hPa West 2.3 km/h 3.2 km/h 78.5% 0 mm 202 W/m2
08:09 20.6 °C 16.7 °C 1016.8 hPa WSW 3.4 km/h 3.2 km/h 78.4% 0 mm 198 W/m2
08:14 20.8 °C 16.9 °C 1016.8 hPa North 4.2 km/h 4.8 km/h 78% 0 mm 202 W/m2
08:19 21 °C 17 °C 1016.8 hPa NE 4.8 km/h 4.8 km/h 77.8% 0 mm 214 W/m2
08:24 21.2 °C 17.1 °C 1016.8 hPa NNE 5.5 km/h 8 km/h 77.4% 0 mm 280 W/m2
08:29 21.4 °C 17.2 °C 1016.8 hPa NNE 5 km/h 6.4 km/h 77.1% 0 mm 252 W/m2
08:34 21.6 °C 17.3 °C 1016.8 hPa NE 1.6 km/h 4.8 km/h 77% 0 mm 239 W/m2
08:39 21.8 °C 17.1 °C 1016.8 hPa ENE 5 km/h 3.5 km/h 75% 0 mm 230 W/m2
08:44 21.9 °C 17.3 °C 1016.8 hPa ENE 7.4 km/h 7.6 km/h 75% 0 mm 202 W/m2
08:49 22 °C 17.3 °C 1016.8 hPa NE 6.6 km/h 9.7 km/h 74.7% 0 mm 208 W/m2
08:54 22.1 °C 17.3 °C 1016.8 hPa NE 7.6 km/h 8 km/h 74.4% 0 mm 194 W/m2
08:59 22.1 °C 17.3 °C 1017.2 hPa NE 6.8 km/h 9.7 km/h 74.4% 0 mm 165 W/m2
09:04 22.2 °C 17.5 °C 1017.2 hPa NE 6.6 km/h 9.7 km/h 75% 0 mm 152 W/m2
09:09 22.2 °C 17.6 °C 1017.2 hPa NNE 6.8 km/h 8 km/h 75% 0 mm 183 W/m2
09:14 22.3 °C 17.8 °C 1017.2 hPa NNE 6.4 km/h 8 km/h 75.4% 0 mm 233 W/m2
09:19 22.5 °C 17.8 °C 1017.2 hPa NNE 8.9 km/h 8 km/h 75% 0 mm 263 W/m2
09:24 22.8 °C 18.1 °C 1017.2 hPa NNE 8.4 km/h 9.7 km/h 74.8% 0 mm 296 W/m2
09:29 23.1 °C 18.3 °C 1017.2 hPa NNE 6.6 km/h 9.7 km/h 74.5% 0 mm 387 W/m2
09:34 23.3 °C 18.4 °C 1017.2 hPa NNE 5.3 km/h 8 km/h 74% 0 mm 290 W/m2
09:39 23.5 °C 18.4 °C 1017.2 hPa NNE 8.5 km/h 5.8 km/h 73% 0 mm 242 W/m2
09:44 23.6 °C 18.4 °C 1017.2 hPa NNE 6.1 km/h 9.7 km/h 73% 0 mm 238 W/m2
09:49 23.6 °C 18.6 °C 1017.2 hPa NNE 6.1 km/h 8 km/h 73.6% 0 mm 544 W/m2
09:54 23.8 °C 18.3 °C 1017.2 hPa NNE 3.9 km/h 4.8 km/h 71.6% 0 mm 544 W/m2
09:59 23.9 °C 18.4 °C 1017.2 hPa WNW 3.9 km/h 4.8 km/h 71.5% 0 mm 222 W/m2
10:04 23.9 °C 18.1 °C 1017.2 hPa SW 3.5 km/h 2.9 km/h 70% 0 mm 213 W/m2
10:09 24 °C 18.2 °C 1017.2 hPa West 4 km/h 3.2 km/h 69.8% 0 mm 276 W/m2
10:14 24.2 °C 18.1 °C 1017.2 hPa West 3.7 km/h 4.8 km/h 68.8% 0 mm 234 W/m2
10:19 24.3 °C 18.2 °C 1017.2 hPa West 2.6 km/h 4.8 km/h 68.8% 0 mm 226 W/m2
10:24 24.3 °C 18.1 °C 1017.2 hPa West 2.4 km/h 3.2 km/h 68% 0 mm 261 W/m2
10:29 24.4 °C 18.3 °C 1017.2 hPa West 3.9 km/h 3.2 km/h 68.5% 0 mm 228 W/m2
10:34 24.5 °C 18.3 °C 1017.2 hPa SW 4.8 km/h 4.8 km/h 68.5% 0 mm 277 W/m2
10:39 24.6 °C 18.5 °C 1017.2 hPa South 4 km/h 6.4 km/h 69% 0 mm 431 W/m2
10:44 24.8 °C 18.8 °C 1017.2 hPa SSE 6 km/h 5 km/h 69.2% 0 mm 843 W/m2
10:49 25.2 °C 19 °C 1017.2 hPa SSE 5.8 km/h 4.7 km/h 68.5% 0 mm 739 W/m2
10:54 25.3 °C 19 °C 1017.2 hPa SSE 7.1 km/h 6.4 km/h 67.9% 0 mm 642 W/m2
10:59 25.4 °C 18.8 °C 1017.2 hPa SSE 5.6 km/h 8 km/h 67% 0 mm 578 W/m2
11:04 25.6 °C 18.9 °C 1017.2 hPa SSE 5.5 km/h 4 km/h 66.9% 0 mm 420 W/m2
11:09 25.7 °C 19.1 °C 1017.2 hPa South 5.1 km/h 3.2 km/h 67% 0 mm 401 W/m2
11:14 25.8 °C 18.9 °C 1017.2 hPa South 4.7 km/h 4.8 km/h 65.8% 0 mm 367 W/m2
11:19 25.9 °C 18.9 °C 1017.2 hPa South 3.1 km/h 6.4 km/h 65.3% 0 mm 499 W/m2
11:24 26.2 °C 19.4 °C 1017.2 hPa WSW 4.5 km/h 3.2 km/h 66.3% 0 mm 408 W/m2
11:29 26.4 °C 19.3 °C 1016.8 hPa West 4.5 km/h 3.5 km/h 65% 0 mm 298 W/m2
11:34 26.5 °C 19.3 °C 1017.2 hPa SW 4.5 km/h 6.4 km/h 64.8% 0 mm 206 W/m2
11:39 26.6 °C 19.2 °C 1017.2 hPa SSW 2.9 km/h 6.4 km/h 64.2% 0 mm 244 W/m2
11:44 26.6 °C 19.3 °C 1016.8 hPa SSE 5 km/h 6.4 km/h 64.5% 0 mm 313 W/m2
11:49 26.7 °C 19.4 °C 1016.8 hPa ESE 4.7 km/h 6.4 km/h 64.5% 0 mm 697 W/m2
11:54 26.8 °C 19.5 °C 1016.8 hPa ESE 5 km/h 4 km/h 64.1% 0 mm 416 W/m2
11:59 27.1 °C 19.7 °C 1016.8 hPa SSE 7.1 km/h 4.3 km/h 64.2% 0 mm 433 W/m2
12:04 27.2 °C 19.7 °C 1016.8 hPa SSE 5.8 km/h 4.7 km/h 63.6% 0 mm 397 W/m2
12:09 27.2 °C 19.7 °C 1016.8 hPa SSE 6.4 km/h 6.4 km/h 63.8% 0 mm 384 W/m2
12:14 27.2 °C 19.6 °C 1016.8 hPa South 5.8 km/h 8 km/h 63.2% 0 mm 307 W/m2
12:19 27.2 °C 19.5 °C 1016.8 hPa South 6 km/h 6.4 km/h 63% 0 mm 235 W/m2
12:24 27.2 °C 19.5 °C 1016.8 hPa South 5.3 km/h 8 km/h 63% 0 mm 295 W/m2
12:29 27.3 °C 19.6 °C 1016.8 hPa South 5.3 km/h 4.8 km/h 63.1% 0 mm 323 W/m2
12:34 27.4 °C 19.8 °C 1016.8 hPa South 5.1 km/h 6.4 km/h 63% 0 mm 787 W/m2
12:39 27.7 °C 20.1 °C 1016.5 hPa South 6.9 km/h 6.4 km/h 63.1% 0 mm 955 W/m2
12:44 28.4 °C 20.4 °C 1016.5 hPa South 7.6 km/h 8 km/h 62.1% 0 mm 955 W/m2
12:49 28.9 °C 20.3 °C 1016.5 hPa SSW 4.8 km/h 9.7 km/h 59.8% 0 mm 996 W/m2
12:54 29.2 °C 20.3 °C 1016.5 hPa South 7.1 km/h 5.5 km/h 58.9% 0 mm 1021 W/m2
12:59 29.6 °C 20.7 °C 1016.1 hPa NE 8.2 km/h 9.7 km/h 58.9% 0 mm 1031 W/m2
13:04 30.2 °C 20.8 °C 1016.1 hPa North 9.7 km/h 6.1 km/h 57.6% 0 mm 969 W/m2
13:09 30.4 °C 21.1 °C 1016.1 hPa WNW 6.3 km/h 9.7 km/h 57.3% 0 mm 916 W/m2
13:14 30.6 °C 20.8 °C 1016.1 hPa NNW 6.4 km/h 8 km/h 56% 0 mm 1050 W/m2
13:19 30.8 °C 20.8 °C 1016.1 hPa WNW 6 km/h 8 km/h 55.2% 0 mm 1055 W/m2
13:24 30.9 °C 20.3 °C 1016.1 hPa WSW 6.1 km/h 9.7 km/h 53.5% 0 mm 587 W/m2
13:29 30.8 °C 20.7 °C 1016.1 hPa WSW 9.3 km/h 8 km/h 55% 0 mm 568 W/m2
13:34 30.7 °C 20.3 °C 1015.8 hPa North 9.5 km/h 11.3 km/h 54.1% 0 mm 218 W/m2
13:39 30.6 °C 20.2 °C 1015.8 hPa NNE 9.5 km/h 11.3 km/h 53.9% 0 mm 301 W/m2
13:44 30.5 °C 20.2 °C 1015.8 hPa NNE 8 km/h 9.7 km/h 54.1% 0 mm 642 W/m2
13:49 30.7 °C 20.3 °C 1015.8 hPa NNE 6.9 km/h 9.7 km/h 54.1% 0 mm 841 W/m2
13:54 30.8 °C 20.6 °C 1015.5 hPa North 10.3 km/h 8.2 km/h 54.6% 0 mm 948 W/m2
13:59 30.9 °C 20.4 °C 1015.5 hPa NNW 7.9 km/h 12.9 km/h 53.7% 0 mm 948 W/m2
14:04 31.2 °C 20.6 °C 1015.5 hPa NNW 6.8 km/h 9.7 km/h 53.3% 0 mm 994 W/m2
14:09 31.6 °C 20.7 °C 1015.5 hPa NNW 10.5 km/h 7.9 km/h 52.4% 0 mm 963 W/m2
14:14 31.7 °C 20.9 °C 1015.5 hPa North 9 km/h 11.3 km/h 52.8% 0 mm 937 W/m2
14:19 31.9 °C 20.9 °C 1015.5 hPa North 11.7 km/h 7.9 km/h 52.3% 0 mm 957 W/m2
14:24 32.2 °C 20.5 °C 1015.5 hPa NE 13.4 km/h 12.9 km/h 50.2% 0 mm 953 W/m2
14:28 31.9 °C 20.6 °C 1015.5 hPa ENE 10.6 km/h 14.5 km/h 51.4% 0 mm 212 W/m2
14:34 31.6 °C 20.5 °C 1015.5 hPa NNE 11.7 km/h 14.5 km/h 52% 0 mm 225 W/m2
14:39 31.4 °C 20.4 °C 1015.5 hPa North 8 km/h 12.9 km/h 52.1% 0 mm 187 W/m2
14:44 31.3 °C 20.4 °C 1015.5 hPa North 8.2 km/h 9.7 km/h 52.5% 0 mm 257 W/m2
14:49 31.3 °C 20.2 °C 1015.5 hPa North 5.8 km/h 9.7 km/h 52% 0 mm 864 W/m2
14:54 31.4 °C 20.6 °C 1015.5 hPa NNE 8.2 km/h 8 km/h 52.5% 0 mm 859 W/m2
14:59 31.9 °C 20.7 °C 1015.1 hPa North 7.9 km/h 11.3 km/h 51.7% 0 mm 857 W/m2
15:04 32.1 °C 20.9 °C 1015.1 hPa North 10 km/h 11.3 km/h 52% 0 mm 837 W/m2
15:09 32.2 °C 20.7 °C 1015.1 hPa NNW 4.8 km/h 12.9 km/h 50.8% 0 mm 769 W/m2
15:14 32.3 °C 20.5 °C 1015.1 hPa North 6.9 km/h 8 km/h 49.8% 0 mm 758 W/m2
15:19 32.1 °C 20.4 °C 1014.8 hPa North 10.5 km/h 8 km/h 50% 0 mm 572 W/m2
15:24 31.8 °C 20.2 °C 1014.8 hPa NW 10.3 km/h 14.5 km/h 50.3% 0 mm 775 W/m2
15:29 31.9 °C 20.4 °C 1014.8 hPa NW 10.5 km/h 11.3 km/h 50.7% 0 mm 784 W/m2
15:34 32.2 °C 20.6 °C 1014.8 hPa NW 14.8 km/h 12.9 km/h 50.3% 0 mm 758 W/m2
15:39 32.4 °C 20.3 °C 1014.8 hPa NW 9.2 km/h 19.3 km/h 49.1% 0 mm 668 W/m2
15:44 32.2 °C 20.9 °C 1014.8 hPa NW 13 km/h 14.5 km/h 51.4% 0 mm 662 W/m2
15:49 32.3 °C 21.3 °C 1014.8 hPa WNW 18.2 km/h 20.9 km/h 52.5% 0 mm 700 W/m2
15:54 32.3 °C 21.3 °C 1014.8 hPa WNW 17.1 km/h 20.9 km/h 52.5% 0 mm 714 W/m2
15:59 32.5 °C 21.7 °C 1014.8 hPa West 15.6 km/h 20.9 km/h 52.9% 0 mm 723 W/m2
16:04 32.7 °C 21.7 °C 1014.4 hPa West 18.2 km/h 19.3 km/h 52.7% 0 mm 661 W/m2
16:09 32.7 °C 21.6 °C 1014.4 hPa WNW 20.6 km/h 15.8 km/h 52.3% 0 mm 661 W/m2
16:14 32.6 °C 21.8 °C 1014.4 hPa WNW 18.2 km/h 24.1 km/h 53% 0 mm 627 W/m2
16:19 32.7 °C 21.7 °C 1014.4 hPa West 20.6 km/h 25.7 km/h 52.3% 0 mm 634 W/m2
16:24 32.8 °C 21.5 °C 1014.1 hPa West 17.1 km/h 20.9 km/h 51.5% 0 mm 627 W/m2
16:29 32.8 °C 20.8 °C 1014.4 hPa NW 17.1 km/h 19.3 km/h 49.1% 0 mm 498 W/m2
16:34 32.5 °C 20.4 °C 1014.4 hPa North 20.4 km/h 15.1 km/h 49% 0 mm 528 W/m2
16:39 32.3 °C 20.6 °C 1014.4 hPa North 20.6 km/h 22.5 km/h 49.8% 0 mm 534 W/m2
16:44 32.4 °C 20.4 °C 1014.4 hPa North 18.3 km/h 14.8 km/h 49% 0 mm 524 W/m2
16:49 32.3 °C 21 °C 1014.4 hPa North 24 km/h 20.9 km/h 51.3% 0 mm 520 W/m2
16:54 32.1 °C 21.5 °C 1014.8 hPa North 19.5 km/h 25.7 km/h 53.7% 0 mm 559 W/m2
16:59 31.6 °C 21.2 °C 1014.8 hPa North 18.5 km/h 22.5 km/h 54% 0 mm 210 W/m2
17:04 31.1 °C 21.2 °C 1014.8 hPa North 20.4 km/h 22.5 km/h 55.8% 0 mm 174 W/m2
17:09 30.6 °C 21.3 °C 1014.8 hPa North 14.6 km/h 10.1 km/h 57.5% 0 mm 165 W/m2
17:14 30.2 °C 21.1 °C 1014.8 hPa North 17.1 km/h 17.7 km/h 58.2% 0 mm 242 W/m2
17:19 29.9 °C 21.1 °C 1014.8 hPa North 14 km/h 19.3 km/h 59% 0 mm 179 W/m2
17:24 29.7 °C 20.8 °C 1014.8 hPa North 14.6 km/h 17.7 km/h 59% 0 mm 334 W/m2
17:29 29.4 °C 20.8 °C 1014.8 hPa North 16.6 km/h 19.3 km/h 59.8% 0 mm 334 W/m2
17:34 29.4 °C 20.9 °C 1014.8 hPa NNW 10.9 km/h 19.3 km/h 59.8% 0 mm 317 W/m2
17:39 29.6 °C 20.9 °C 1014.8 hPa North 9.7 km/h 14.5 km/h 59.6% 0 mm 304 W/m2
17:44 29.6 °C 20.7 °C 1014.8 hPa North 13 km/h 12.9 km/h 59% 0 mm 284 W/m2
17:49 29.7 °C 20.9 °C 1014.8 hPa North 14.6 km/h 14.5 km/h 59.5% 0 mm 282 W/m2
17:54 29.6 °C 21 °C 1015.1 hPa North 12.7 km/h 16.1 km/h 60% 0 mm 261 W/m2
17:59 29.6 °C 20.9 °C 1015.1 hPa NNE 14.2 km/h 16.1 km/h 60% 0 mm 259 W/m2
18:04 29.6 °C 21.2 °C 1015.1 hPa North 9.5 km/h 16.1 km/h 60.7% 0 mm 215 W/m2
18:09 29.6 °C 21.3 °C 1015.1 hPa North 10 km/h 11.3 km/h 61.3% 0 mm 120 W/m2
18:14 29.4 °C 21.4 °C 1015.5 hPa North 13.2 km/h 12.9 km/h 62% 0 mm 143 W/m2
18:19 29.3 °C 21.3 °C 1015.5 hPa North 13.4 km/h 7.9 km/h 62% 0 mm 143 W/m2
18:24 29.2 °C 21.2 °C 1015.5 hPa North 12.4 km/h 14.5 km/h 62.2% 0 mm 106 W/m2
18:29 29.1 °C 20.7 °C 1015.8 hPa North 17.1 km/h 20.9 km/h 60.4% 0 mm 75 W/m2
18:34 28.7 °C 20.2 °C 1015.8 hPa NNE 20.6 km/h 20.9 km/h 60% 0 mm 66 W/m2
18:39 28.1 °C 19.4 °C 1015.8 hPa ENE 27.4 km/h 27.4 km/h 59.3% 0 mm 76 W/m2
18:44 27.8 °C 19.4 °C 1015.8 hPa East 22.7 km/h 16.9 km/h 60.4% 0 mm 82 W/m2
18:49 27 °C 19.4 °C 1015.8 hPa East 16.9 km/h 24.1 km/h 63.4% 0 mm 116 W/m2
18:54 26.6 °C 19.3 °C 1015.8 hPa ESE 12.1 km/h 20.9 km/h 64.2% 0 mm 131 W/m2
18:59 26.5 °C 19.4 °C 1016.1 hPa SE 7.9 km/h 14.5 km/h 65% 0 mm 148 W/m2
19:04 26.4 °C 19.5 °C 1016.1 hPa NE 10.1 km/h 9.7 km/h 65.8% 0 mm 149 W/m2
19:09 26.4 °C 19.8 °C 1016.1 hPa NNW 8.4 km/h 11.3 km/h 67% 0 mm 144 W/m2
19:14 26.2 °C 19.9 °C 1016.1 hPa NNE 8.2 km/h 11.3 km/h 68.4% 0 mm 130 W/m2
19:19 26.1 °C 19.9 °C 1016.1 hPa East 6 km/h 9.7 km/h 69% 0 mm 115 W/m2
19:24 26.1 °C 19.9 °C 1016.1 hPa SSE 5 km/h 6.4 km/h 68.7% 0 mm 79 W/m2
19:29 26.1 °C 19.9 °C 1016.1 hPa South 5 km/h 4.8 km/h 69% 0 mm 60 W/m2
19:34 26.1 °C 19.9 °C 1016.1 hPa SSW 6.4 km/h 4.3 km/h 69% 0 mm 43 W/m2
19:39 25.9 °C 19.9 °C 1016.5 hPa SW 4.3 km/h 8 km/h 69.6% 0 mm 29 W/m2
19:44 25.8 °C 20.1 °C 1016.5 hPa WSW 5.8 km/h 4.8 km/h 70.4% 0 mm 17 W/m2
19:49 25.7 °C 20.3 °C 1016.5 hPa WSW 5.8 km/h 5.5 km/h 72.2% 0 mm 8 W/m2
19:54 25.4 °C 20.5 °C 1016.5 hPa SSW 7.4 km/h 8 km/h 74.5% 0 mm 3 W/m2
19:59 25.1 °C 20.4 °C 1016.8 hPa SSE 5.8 km/h 8 km/h 75.9% 0 mm 1 W/m2
20:04 24.7 °C 20.6 °C 1016.8 hPa SSE 5.6 km/h 6.4 km/h 78% 0 mm 0 W/m2
20:09 24.6 °C 20.5 °C 1016.8 hPa SSE 4.2 km/h 3.2 km/h 78.3% 0 mm 0 W/m2
20:14 24.5 °C 20.6 °C 1016.8 hPa South 5.1 km/h 4.8 km/h 78.9% 0 mm 0 W/m2
20:19 24.3 °C 20.6 °C 1016.8 hPa South 5.5 km/h 6.4 km/h 80% 0 mm 0 W/m2
20:24 24.1 °C 20.5 °C 1016.8 hPa South 4 km/h 4.8 km/h 80.5% 0 mm 0 W/m2
20:29 23.9 °C 20.6 °C 1016.8 hPa SW 6 km/h 4.8 km/h 81.4% 0 mm 0 W/m2
20:34 23.8 °C 20.6 °C 1016.8 hPa SSW 5.8 km/h 6.4 km/h 82.6% 0 mm 0 W/m2
20:39 23.6 °C 20.6 °C 1016.8 hPa South 5.6 km/h 4 km/h 83.4% 0 mm 0 W/m2
20:44 23.4 °C 20.6 °C 1016.8 hPa South 5.3 km/h 6.4 km/h 84% 0 mm 0 W/m2
20:49 23.2 °C 20.6 °C 1017.2 hPa SSE 8 km/h 6.4 km/h 85% 0 mm 0 W/m2
20:54 23.1 °C 20.4 °C 1017.2 hPa SSE 6.4 km/h 9.7 km/h 85% 0 mm 0 W/m2
20:58 23 °C 20.5 °C 1017.2 hPa SSE 5.6 km/h 8 km/h 85.7% 0 mm 0 W/m2
21:04 22.9 °C 20.3 °C 1017.2 hPa South 3.1 km/h 6.4 km/h 85.2% 0 mm 0 W/m2
21:09 22.8 °C 20.3 °C 1017.2 hPa SW 2.3 km/h 3.2 km/h 85.8% 0 mm 0 W/m2
21:14 22.8 °C 20.3 °C 1017.2 hPa SSW 3.2 km/h 3.2 km/h 86% 0 mm 0 W/m2
21:19 22.7 °C 20.1 °C 1017.2 hPa SSW 3.7 km/h 2.9 km/h 85.1% 0 mm 0 W/m2
21:24 22.6 °C 20.1 °C 1017.2 hPa SW 4.7 km/h 3.5 km/h 86% 0 mm 0 W/m2
21:29 22.4 °C 20 °C 1017.2 hPa SSW 5 km/h 6.4 km/h 86% 0 mm 0 W/m2
21:34 22.3 °C 19.8 °C 1017.2 hPa South 5.3 km/h 4.8 km/h 86% 0 mm 0 W/m2
21:39 22.1 °C 19.8 °C 1017.2 hPa South 6.1 km/h 6.4 km/h 86.7% 0 mm 0 W/m2
21:44 21.9 °C 19.7 °C 1017.2 hPa South 5 km/h 8 km/h 87.2% 0 mm 0 W/m2
21:49 21.7 °C 19.7 °C 1017.2 hPa SSE 6.1 km/h 4.7 km/h 88% 0 mm 0 W/m2
21:54 21.6 °C 19.7 °C 1017.2 hPa SSE 5.6 km/h 8 km/h 88.8% 0 mm 0 W/m2
21:59 21.5 °C 19.4 °C 1017.2 hPa SSE 5 km/h 8 km/h 88% 0 mm 0 W/m2
22:04 21.5 °C 19.4 °C 1017.2 hPa South 4.7 km/h 4.8 km/h 88% 0 mm 0 W/m2
22:09 21.3 °C 19.4 °C 1017.2 hPa South 5.8 km/h 6.4 km/h 89% 0 mm 0 W/m2
22:14 21.3 °C 19.4 °C 1017.5 hPa South 3.9 km/h 8 km/h 89% 0 mm 0 W/m2
22:19 21.3 °C 19.4 °C 1017.5 hPa West 3.5 km/h 4.8 km/h 89% 0 mm 0 W/m2
22:24 21.2 °C 19.3 °C 1017.5 hPa West 3.5 km/h 2.6 km/h 89% 0 mm 0 W/m2
22:29 21.2 °C 19.3 °C 1017.5 hPa WSW 4.8 km/h 4 km/h 89% 0 mm 0 W/m2
22:34 21.1 °C 19.2 °C 1017.5 hPa WSW 3.4 km/h 4.8 km/h 89% 0 mm 0 W/m2
22:39 21.1 °C 19.2 °C 1017.5 hPa WSW 1.4 km/h 4.8 km/h 89% 0 mm 0 W/m2
22:44 21 °C 19.1 °C 1017.5 hPa WSW 0.6 km/h 1.6 km/h 89% 0 mm 0 W/m2
22:49 20.9 °C 19.1 °C 1017.5 hPa SW 3.2 km/h 3.2 km/h 89% 0 mm 0 W/m2
22:54 20.9 °C 19.1 °C 1017.5 hPa WSW 1.8 km/h 3.2 km/h 89.2% 0 mm 0 W/m2
22:59 20.8 °C 19.1 °C 1017.5 hPa WSW 4.3 km/h 3.2 km/h 89.7% 0 mm 0 W/m2
23:04 20.8 °C 18.9 °C 1017.5 hPa SW 3.7 km/h 4.8 km/h 89% 0 mm 0 W/m2
23:09 20.8 °C 18.9 °C 1017.8 hPa SW 3.2 km/h 3.2 km/h 89% 0 mm 0 W/m2
23:14 20.8 °C 18.9 °C 1017.8 hPa ENE 4.8 km/h 3.5 km/h 89.3% 0 mm 0 W/m2
23:19 20.7 °C 19 °C 1017.8 hPa South 5 km/h 4.8 km/h 90% 0 mm 0 W/m2
23:24 20.7 °C 18.9 °C 1017.8 hPa South 3.7 km/h 4.8 km/h 90% 0 mm 0 W/m2
23:29 20.6 °C 19 °C 1017.8 hPa SSE 3.1 km/h 3.2 km/h 90.7% 0 mm 0 W/m2
23:34 20.5 °C 19 °C 1017.8 hPa SE 3.7 km/h 3.2 km/h 91% 0 mm 0 W/m2
23:39 20.5 °C 19 °C 1017.8 hPa SSE 3.5 km/h 3.2 km/h 91% 0 mm 0 W/m2
23:44 20.4 °C 18.9 °C 1017.8 hPa SSE 3.5 km/h 3.2 km/h 91% 0 mm 0 W/m2
23:49 20.4 °C 18.9 °C 1017.8 hPa WSW 3.1 km/h 3.2 km/h 91% 0 mm 0 W/m2
23:54 20.3 °C 18.8 °C 1017.8 hPa NW 2.1 km/h 3.2 km/h 91% 0 mm 0 W/m2
23:59 20.3 °C 19.1 °C 1017.8 hPa NE 3.9 km/h 3.2 km/h 92.6% 0 mm 0 W/m2
Knjazevac, Serbia
Compliments of Weather Underground - 4 mb